Huvudsida
METAR-TAF:

METAR-TAF

Flygplatser :

Miri, Malaysia

latitud: 04-20N, longitud: 113-59E, höjd: 17 m

Aktuellt väderrapport

Denna rapport gjordes för 48 minuter sedan, klockan 15:00 UTC
Vind 2 kt varierande vindriktning
Temperatur 27°C
Fuktighet 94%
Tryck 1008 hPa
Sikt 10 km eller mer
Spridda moln på en höjd av 1400 ft
Brutna moln på en höjd av 15000 ft

METAR: WBGR 271500Z VRB02KT 9999 SCT014 BKN150 27/26 Q1008

Tid: 23:48 (15:48 UTC)

Väderprognos

Denna rapport gjordes för 4 timmar och 48 minuter sedan, klockan 11:00 UTC
Prognos gäller från 27 kl. 12 UTC till 28 kl. 12 UTC
Vind 3 kt varierande vindriktning
Sikt 10 km eller mer
Spridda moln på en höjd av 1600 ft
Temporärt
från 27 kl. 12 UTC till 27 kl. 15 UTC
Sikt: 5000 m
Få moln på en höjd av 1500 ft, Cumulonimbus.
regn
Blir
från 28 kl. 02 UTC till 28 kl. 04 UTC
Vind 5 kt från väst

TAF: WBGR 271100Z 2712/2812 VRB03KT 9999 SCT016 TEMPO 2712/2715 5000 RA FEW015CB BECMG 2802/2804 26005KT

Aktuella väderrapporter och prognoser från 4000 flygplatser (METAR- och TAF-rapporter).

De tillgängliga stationerna syns som gula och röda prickar på kartan.

För musen över prickarna för att se namnen på stationerna.

Klicka sedan för att få väderrapporter och prognoser.

För att ändra kartan: Klicka på de gröna knapparna med ett svart kors på för att zooma in; den gröna knappen med ett streck på för att zooma ut; eller på de gröna pilarna för angränsande kartor.


METAR-TAF: